createdAt,value
2022-10-02T00:00:55.195Z,98.30
2022-10-02T00:03:29.238Z,98.30
2022-10-02T00:06:07.953Z,98.40
2022-10-02T00:08:41.488Z,98.40
2022-10-02T00:11:23.012Z,98.40
2022-10-02T00:13:51.593Z,98.40
2022-10-02T00:16:43.038Z,98.50
2022-10-02T00:19:12.414Z,98.60
2022-10-02T00:22:08.539Z,98.60
2022-10-02T00:27:34.608Z,98.70
2022-10-02T00:30:04.578Z,98.80
2022-10-02T00:32:58.701Z,99.00
2022-10-02T00:35:48.772Z,99.30
2022-10-02T00:38:46.204Z,99.20
2022-10-02T00:41:46.926Z,99.20
2022-10-02T00:44:45.746Z,99.20
2022-10-02T00:48:04.140Z,99.20
2022-10-02T00:51:01.909Z,99.30
2022-10-02T00:53:59.637Z,99.50
2022-10-02T00:56:56.755Z,99.40
2022-10-02T00:59:44.747Z,99.40
2022-10-02T01:02:36.597Z,99.40
2022-10-02T01:05:08.501Z,99.60
2022-10-02T01:07:43.339Z,99.70
2022-10-02T01:10:13.534Z,99.60
2022-10-02T01:12:40.971Z,99.80
2022-10-02T01:15:21.047Z,99.80
2022-10-02T01:17:52.518Z,99.90
2022-10-02T01:20:45.513Z,99.90
2022-10-02T01:23:41.068Z,99.90
2022-10-02T01:26:08.185Z,99.90
2022-10-02T01:28:35.314Z,99.90
2022-10-02T01:31:15.980Z,99.90
2022-10-02T01:33:45.058Z,99.90
2022-10-02T01:36:14.847Z,99.90
2022-10-02T01:38:43.737Z,99.90
2022-10-02T01:41:11.624Z,99.90
2022-10-02T01:43:51.694Z,99.90
2022-10-02T01:47:00.827Z,99.90
2022-10-02T01:49:44.590Z,99.90
2022-10-02T01:52:36.137Z,99.90
2022-10-02T01:55:33.895Z,99.90
2022-10-02T01:58:39.579Z,99.90
2022-10-02T02:01:25.067Z,99.90
2022-10-02T02:03:54.837Z,99.90
2022-10-02T02:06:55.599Z,99.90
2022-10-02T02:09:46.025Z,99.90
2022-10-02T02:12:39.222Z,99.90
2022-10-02T02:15:29.723Z,99.90
2022-10-02T02:18:28.282Z,99.90
2022-10-02T02:21:06.003Z,99.90
2022-10-02T02:23:37.020Z,99.90
2022-10-02T02:26:12.301Z,99.90
2022-10-02T02:28:48.672Z,99.90
2022-10-02T02:31:21.781Z,99.90
2022-10-02T02:33:57.395Z,99.90
2022-10-02T02:36:40.475Z,99.90
2022-10-02T02:39:14.995Z,99.90
2022-10-02T02:41:53.257Z,99.90
2022-10-02T02:44:32.363Z,99.90
2022-10-02T02:47:24.395Z,99.90
2022-10-02T02:50:05.282Z,99.90
2022-10-02T02:52:48.712Z,99.90
2022-10-02T02:55:19.988Z,99.90
2022-10-02T02:58:02.159Z,99.90
2022-10-02T03:00:29.234Z,99.90
2022-10-02T03:02:56.030Z,99.90
2022-10-02T03:05:27.649Z,99.90
2022-10-02T03:08:07.346Z,99.90
2022-10-02T03:11:12.352Z,99.90
2022-10-02T03:14:22.976Z,99.90
2022-10-02T03:17:21.111Z,99.90
2022-10-02T03:20:06.431Z,99.90
2022-10-02T03:23:00.359Z,99.90
2022-10-02T03:25:52.599Z,99.90
2022-10-02T03:28:55.119Z,99.90
2022-10-02T03:31:27.447Z,99.90
2022-10-02T03:33:55.651Z,99.90
2022-10-02T03:36:24.703Z,99.90
2022-10-02T03:39:19.912Z,99.90
2022-10-02T03:41:43.188Z,99.90
2022-10-02T03:44:10.000Z,99.90
2022-10-02T03:46:37.071Z,99.90
2022-10-02T03:49:04.089Z,99.90
2022-10-02T03:51:30.919Z,99.90
2022-10-02T03:53:57.740Z,99.90
2022-10-02T03:56:46.355Z,99.90
2022-10-02T03:59:27.089Z,99.90
2022-10-02T04:01:55.736Z,99.90
2022-10-02T04:04:31.204Z,99.90
2022-10-02T04:07:05.534Z,99.90
2022-10-02T04:09:44.557Z,99.90
2022-10-02T04:12:19.460Z,99.90
2022-10-02T04:15:14.777Z,99.90
2022-10-02T04:17:48.898Z,99.90
2022-10-02T04:20:37.204Z,99.90
2022-10-02T04:23:26.683Z,99.90
2022-10-02T04:26:14.273Z,99.90
2022-10-02T04:28:52.363Z,99.90
2022-10-02T04:31:19.212Z,99.90
2022-10-02T04:33:46.218Z,99.90
2022-10-02T04:36:19.889Z,99.90
2022-10-02T04:39:02.947Z,99.90
2022-10-02T04:42:21.488Z,99.90
2022-10-02T04:45:42.800Z,99.90
2022-10-02T04:48:28.493Z,99.90
2022-10-02T04:51:14.077Z,99.90
2022-10-02T04:54:03.372Z,99.90
2022-10-02T04:57:23.593Z,99.90
2022-10-02T05:00:04.353Z,99.90
2022-10-02T05:03:02.986Z,99.90
2022-10-02T05:06:13.812Z,99.90
2022-10-02T05:09:12.238Z,99.90
2022-10-02T05:12:03.278Z,99.90
2022-10-02T05:15:31.052Z,99.90
2022-10-02T05:18:07.644Z,99.90
2022-10-02T05:20:58.660Z,99.90
2022-10-02T05:23:46.946Z,99.90
2022-10-02T05:26:44.395Z,99.90
2022-10-02T05:29:35.758Z,99.90
2022-10-02T05:32:14.592Z,99.90
2022-10-02T05:34:50.239Z,99.90
2022-10-02T05:37:45.104Z,99.90
2022-10-02T05:40:30.635Z,99.90
2022-10-02T05:43:48.582Z,99.90
2022-10-02T05:46:24.628Z,99.90
2022-10-02T05:49:12.407Z,99.90
2022-10-02T05:52:06.547Z,99.90
2022-10-02T05:55:13.533Z,99.90
2022-10-02T05:57:51.412Z,99.90
2022-10-02T06:00:42.449Z,99.90
2022-10-02T06:03:33.245Z,99.90
2022-10-02T06:06:15.304Z,99.90
2022-10-02T06:09:08.071Z,99.90
2022-10-02T06:11:52.544Z,99.90
2022-10-02T06:14:27.596Z,99.90
2022-10-02T06:17:14.674Z,99.90
2022-10-02T06:20:03.953Z,99.90
2022-10-02T06:22:45.011Z,99.90
2022-10-02T06:25:27.684Z,99.90
2022-10-02T06:28:12.449Z,99.90
2022-10-02T06:30:47.448Z,99.90
2022-10-02T06:33:26.171Z,99.90
2022-10-02T06:36:17.339Z,99.90
2022-10-02T06:39:03.813Z,99.90
2022-10-02T06:42:16.648Z,99.90
2022-10-02T06:45:25.927Z,99.90
2022-10-02T06:48:46.111Z,99.90
2022-10-02T06:51:48.325Z,99.90
2022-10-02T06:54:46.069Z,99.90
2022-10-02T06:57:33.246Z,99.90
2022-10-02T07:00:14.632Z,99.90
2022-10-02T07:03:27.652Z,99.90
2022-10-02T07:06:25.939Z,99.90
2022-10-02T07:09:41.311Z,99.90
2022-10-02T07:12:30.983Z,99.90
2022-10-02T07:15:25.971Z,99.90
2022-10-02T07:19:01.398Z,99.90
2022-10-02T07:22:32.504Z,99.90
2022-10-02T07:25:50.753Z,99.90
2022-10-02T07:28:31.595Z,99.90
2022-10-02T07:31:25.211Z,99.90
2022-10-02T07:34:35.277Z,99.90
2022-10-02T07:37:49.769Z,99.90
2022-10-02T07:40:38.578Z,99.90
2022-10-02T07:43:17.787Z,99.90
2022-10-02T07:46:13.436Z,99.90
2022-10-02T07:48:56.201Z,99.90
2022-10-02T07:51:47.682Z,99.90
2022-10-02T07:54:50.340Z,99.90
2022-10-02T07:57:27.516Z,99.90
2022-10-02T08:00:20.376Z,99.90
2022-10-02T08:03:07.776Z,99.90
2022-10-02T08:05:48.482Z,99.90
2022-10-02T08:08:41.748Z,99.80
2022-10-02T08:11:32.214Z,99.90
2022-10-02T08:14:19.398Z,99.90
2022-10-02T08:16:51.183Z,99.90
2022-10-02T08:19:29.849Z,99.80
2022-10-02T08:22:05.915Z,99.90
2022-10-02T08:24:51.631Z,99.70
2022-10-02T08:27:58.920Z,99.30
2022-10-02T08:30:25.978Z,99.20
2022-10-02T08:32:54.430Z,99.00
2022-10-02T08:35:24.941Z,98.80
2022-10-02T08:38:32.439Z,98.70
2022-10-02T08:41:31.420Z,98.80
2022-10-02T08:44:43.330Z,98.60
2022-10-02T08:47:49.996Z,98.50
2022-10-02T08:50:54.205Z,98.60
2022-10-02T08:54:00.612Z,98.40
2022-10-02T08:56:59.880Z,98.60
2022-10-02T09:00:23.017Z,98.70
2022-10-02T09:03:20.302Z,98.90
2022-10-02T09:06:08.270Z,98.80
2022-10-02T09:09:32.817Z,98.40
2022-10-02T09:12:37.830Z,98.20
2022-10-02T09:16:01.514Z,98.30
2022-10-02T09:19:19.174Z,98.40
2022-10-02T09:21:55.999Z,98.00
2022-10-02T09:24:25.581Z,98.10
2022-10-02T09:27:18.048Z,97.60
2022-10-02T09:30:02.249Z,97.70
2022-10-02T09:33:16.944Z,97.00
2022-10-02T09:36:16.295Z,97.10
2022-10-02T09:39:24.968Z,96.70
2022-10-02T09:42:19.913Z,96.50
2022-10-02T09:45:22.501Z,96.50
2022-10-02T09:52:25.250Z,96.00
2022-10-02T09:55:12.190Z,95.60
2022-10-02T09:57:59.072Z,95.40
2022-10-02T10:01:01.365Z,95.70
2022-10-02T10:04:18.369Z,94.40
2022-10-02T10:07:28.214Z,94.00
2022-10-02T10:10:38.133Z,93.50
2022-10-02T10:13:26.159Z,93.10
2022-10-02T10:16:43.902Z,93.10
2022-10-02T10:20:04.289Z,92.30
2022-10-02T10:22:53.051Z,93.20
2022-10-02T10:25:50.131Z,93.50
2022-10-02T10:28:38.222Z,92.50
2022-10-02T10:31:37.383Z,92.80
2022-10-02T10:34:36.326Z,92.60
2022-10-02T10:37:59.088Z,91.50
2022-10-02T10:40:57.693Z,91.90
2022-10-02T10:44:12.785Z,91.10
2022-10-02T10:47:34.106Z,91.20
2022-10-02T10:50:35.894Z,89.20
2022-10-02T10:53:46.484Z,89.20
2022-10-02T10:56:38.510Z,87.60
2022-10-02T10:59:58.100Z,84.60
2022-10-02T11:02:54.637Z,85.90
2022-10-02T11:05:55.396Z,86.70
2022-10-02T11:09:04.719Z,85.00
2022-10-02T11:12:12.780Z,82.80
2022-10-02T11:15:44.666Z,86.20
2022-10-02T11:18:50.672Z,83.70
2022-10-02T11:21:57.247Z,76.90
2022-10-02T11:25:13.910Z,78.10
2022-10-02T11:28:23.627Z,79.60
2022-10-02T11:31:24.927Z,81.90
2022-10-02T11:34:18.174Z,82.90
2022-10-02T11:37:17.561Z,80.30
2022-10-02T11:40:52.934Z,81.90
2022-10-02T11:43:47.658Z,83.40
2022-10-02T11:47:02.691Z,82.60
2022-10-02T11:49:59.081Z,83.90
2022-10-02T11:52:59.303Z,83.80
2022-10-02T11:55:46.036Z,82.30
2022-10-02T11:58:52.379Z,82.60
2022-10-02T12:01:54.544Z,84.20
2022-10-02T12:04:52.468Z,81.20
2022-10-02T12:07:41.451Z,81.50
2022-10-02T12:10:33.596Z,77.80
2022-10-02T12:13:15.911Z,77.50
2022-10-02T12:16:13.137Z,77.50
2022-10-02T12:19:12.307Z,75.80
2022-10-02T12:22:31.394Z,76.00
2022-10-02T12:25:48.803Z,75.90
2022-10-02T12:28:38.285Z,77.80
2022-10-02T12:31:45.445Z,78.80
2022-10-02T12:34:55.297Z,77.80
2022-10-02T12:37:55.958Z,77.40
2022-10-02T12:40:52.583Z,78.40
2022-10-02T12:44:06.878Z,78.40
2022-10-02T12:47:15.840Z,78.60
2022-10-02T12:50:16.294Z,80.20
2022-10-02T12:53:36.135Z,80.20
2022-10-02T12:56:33.328Z,81.40
2022-10-02T12:59:55.647Z,81.70
2022-10-02T13:03:13.433Z,81.60
2022-10-02T13:06:15.350Z,82.10
2022-10-02T13:09:17.549Z,83.20
2022-10-02T13:12:08.362Z,83.10
2022-10-02T13:15:17.435Z,83.10
2022-10-02T13:18:25.326Z,83.70
2022-10-02T13:21:06.018Z,83.90
2022-10-02T13:23:53.240Z,81.80
2022-10-02T13:26:51.323Z,81.80
2022-10-02T13:29:46.256Z,80.00
2022-10-02T13:32:55.061Z,79.70
2022-10-02T13:36:08.621Z,80.40
2022-10-02T13:39:11.448Z,80.00
2022-10-02T13:42:00.436Z,80.70
2022-10-02T13:45:03.646Z,81.60
2022-10-02T13:48:12.425Z,82.10
2022-10-02T13:51:07.627Z,80.70
2022-10-02T13:53:41.595Z,80.40
2022-10-02T13:56:32.305Z,76.90
2022-10-02T13:59:42.598Z,74.00
2022-10-02T14:02:33.565Z,76.00
2022-10-02T14:05:19.516Z,75.30
2022-10-02T14:08:33.002Z,76.00
2022-10-02T14:11:30.197Z,77.20
2022-10-02T14:14:14.935Z,76.20
2022-10-02T14:17:25.247Z,77.60
2022-10-02T14:20:08.590Z,76.70
2022-10-02T14:23:05.100Z,75.50
2022-10-02T14:25:54.159Z,74.30
2022-10-02T14:29:06.206Z,73.80
2022-10-02T14:31:49.775Z,72.40
2022-10-02T14:34:31.933Z,71.50
2022-10-02T14:37:36.317Z,70.90
2022-10-02T14:40:17.238Z,73.50
2022-10-02T14:43:35.289Z,73.30
2022-10-02T14:46:21.682Z,73.40
2022-10-02T14:49:20.777Z,73.00
2022-10-02T14:52:13.975Z,70.90
2022-10-02T14:54:50.463Z,72.80
2022-10-02T14:57:51.268Z,72.40
2022-10-02T15:00:24.616Z,74.90
2022-10-02T15:03:24.736Z,75.30
2022-10-02T15:19:26.393Z,74.10
2022-10-02T15:22:28.016Z,73.90
2022-10-02T15:25:17.933Z,72.30
2022-10-02T15:28:49.303Z,72.00
2022-10-02T15:31:23.209Z,71.60
2022-10-02T15:34:30.250Z,72.20
2022-10-02T15:37:27.119Z,73.10
2022-10-02T15:40:11.043Z,73.40
2022-10-02T15:43:02.838Z,74.40
2022-10-02T15:45:55.101Z,75.30
2022-10-02T15:49:00.349Z,75.00
2022-10-02T15:52:03.675Z,75.50
2022-10-02T15:54:59.442Z,76.20
2022-10-02T15:57:40.870Z,76.20
2022-10-02T16:00:14.081Z,76.90
2022-10-02T16:04:34.117Z,77.30
2022-10-02T16:07:22.918Z,77.90
2022-10-02T16:10:02.658Z,78.70
2022-10-02T16:34:17.920Z,79.60
2022-10-02T16:36:53.949Z,80.30
2022-10-02T16:39:37.096Z,81.00
2022-10-02T16:42:31.194Z,80.70
2022-10-02T18:18:01.661Z,91.30
2022-10-02T18:20:59.295Z,91.60
2022-10-02T18:28:13.829Z,91.90
2022-10-02T18:31:53.893Z,92.10
2022-10-02T18:35:25.778Z,92.20
2022-10-02T18:38:31.754Z,92.40
2022-10-02T18:41:46.332Z,92.50
2022-10-02T18:44:55.130Z,92.70
2022-10-02T18:48:08.304Z,92.90
2022-10-02T18:51:22.040Z,92.90
2022-10-02T18:54:28.075Z,93.10
2022-10-02T18:57:09.266Z,93.10
2022-10-02T19:05:17.416Z,93.50
2022-10-02T19:07:55.285Z,93.50
2022-10-02T19:10:47.386Z,93.60
2022-10-02T19:13:18.292Z,93.70
2022-10-02T19:15:51.055Z,93.90
2022-10-02T19:18:33.211Z,94.00
2022-10-02T19:21:35.836Z,94.00
2022-10-02T19:24:27.272Z,94.10
2022-10-02T19:27:07.739Z,94.30
2022-10-02T19:29:43.301Z,94.30
2022-10-02T19:32:27.260Z,94.40
2022-10-02T19:35:28.546Z,94.50
2022-10-02T19:38:18.821Z,94.60
2022-10-02T19:41:00.807Z,94.60
2022-10-02T19:43:35.195Z,94.70
2022-10-02T19:46:10.767Z,94.70
2022-10-02T19:48:45.491Z,94.80
2022-10-02T19:51:21.369Z,94.80
2022-10-02T19:54:22.563Z,94.70
2022-10-02T19:57:15.469Z,94.80
2022-10-02T19:59:54.309Z,94.90
2022-10-02T20:02:44.192Z,94.90
2022-10-02T20:05:33.349Z,94.90
2022-10-02T20:08:20.227Z,94.90
2022-10-02T20:11:02.936Z,94.90
2022-10-02T20:13:44.776Z,95.00
2022-10-02T20:16:42.256Z,95.00
2022-10-02T20:19:27.491Z,95.20
2022-10-02T20:21:59.878Z,95.10
2022-10-02T20:25:00.848Z,95.20
2022-10-02T20:27:47.707Z,95.30
2022-10-02T20:30:19.231Z,95.40
2022-10-02T20:33:13.226Z,95.40
2022-10-02T20:35:47.934Z,95.40
2022-10-02T20:38:27.506Z,95.40
2022-10-02T20:40:58.176Z,95.50
2022-10-02T20:43:48.929Z,95.50
2022-10-02T20:46:33.860Z,95.60
2022-10-02T20:49:55.613Z,95.60
2022-10-02T20:53:05.820Z,95.60
2022-10-02T20:55:56.218Z,95.70
2022-10-02T20:58:57.816Z,95.70
2022-10-02T21:01:54.269Z,95.80
2022-10-02T21:05:13.007Z,95.80
2022-10-02T21:07:52.749Z,95.90
2022-10-02T21:10:56.339Z,95.90
2022-10-02T21:14:12.405Z,95.90
2022-10-02T21:17:39.411Z,95.90
2022-10-02T21:20:51.142Z,96.00
2022-10-02T21:24:38.754Z,96.10
2022-10-02T21:27:24.042Z,96.10
2022-10-02T21:30:20.000Z,96.10
2022-10-02T21:33:26.896Z,96.10
2022-10-02T21:40:23.515Z,96.10
2022-10-02T21:43:09.957Z,96.10
2022-10-02T21:46:14.431Z,96.20
2022-10-02T21:48:53.835Z,96.20
2022-10-02T21:51:48.246Z,96.10
2022-10-02T21:54:59.129Z,96.20
2022-10-02T21:58:32.592Z,96.20
2022-10-02T22:01:30.305Z,96.20
2022-10-02T22:04:25.234Z,96.30
2022-10-02T22:07:16.173Z,96.30
2022-10-02T22:10:40.480Z,96.30
2022-10-02T22:13:36.750Z,96.30
2022-10-02T22:16:18.830Z,96.30
2022-10-02T22:18:55.049Z,96.30
2022-10-02T22:21:56.028Z,96.40
2022-10-02T22:24:59.828Z,96.40
2022-10-02T22:28:23.569Z,96.50
2022-10-02T22:31:43.262Z,96.50
2022-10-02T22:34:41.544Z,96.50
2022-10-02T22:37:27.082Z,96.50
2022-10-02T22:40:08.201Z,96.50
2022-10-02T22:43:04.063Z,96.50
2022-10-02T22:45:48.489Z,96.50
2022-10-02T22:48:37.532Z,96.50
2022-10-02T22:51:26.535Z,96.50
2022-10-02T22:54:31.193Z,96.50
2022-10-02T22:57:31.209Z,96.50
2022-10-02T23:00:12.996Z,96.60
2022-10-02T23:02:59.310Z,96.60
2022-10-02T23:05:54.683Z,96.60
2022-10-02T23:09:08.320Z,96.70
2022-10-02T23:11:50.113Z,96.80
2022-10-02T23:14:29.100Z,96.80
2022-10-02T23:17:25.836Z,96.80
2022-10-02T23:20:18.184Z,96.90
2022-10-02T23:23:15.151Z,96.90
2022-10-02T23:26:06.594Z,96.90
2022-10-02T23:29:18.212Z,97.00
2022-10-02T23:32:24.603Z,97.00
2022-10-02T23:35:19.538Z,97.00
2022-10-02T23:38:12.522Z,97.00
2022-10-02T23:41:40.517Z,97.10
2022-10-02T23:44:32.837Z,97.10
2022-10-02T23:47:29.278Z,97.10
2022-10-02T23:49:59.411Z,97.10
2022-10-02T23:53:14.300Z,97.20
2022-10-02T23:56:23.772Z,97.10
2022-10-02T23:59:10.406Z,97.10
